Time;durP1;ratioP1;P1;durP2;ratioP2;P2;SDS_P1;SDS_P2;PMS_P1;PMS_P2;Temp;Humidity;BMP_temperature;BMP_pressure;BME280_temperature;BME280_humidity;BME280_pressure;Samples;Min_cycle;Max_cycle;Signal;HPM_P1;HPM_P2
2021/11/24 00:02:21;;;;;;;;;;;;;;;17.51;61.14;101591.53;143736;982;47006;-74
2021/11/24 00:04:47;;;;;;;;;;;;;;;17.54;61.10;101595.66;143736;981;46012;-74
2021/11/24 00:07:13;;;;;;;;;;;;;;;17.57;61.84;101600.66;143736;978;46004;-74
2021/11/24 00:09:38;;;;;;;;;;;;;;;17.58;61.98;101602.31;143736;984;46011;-74
2021/11/24 00:12:05;;;;;;;;;;;;;;;17.60;62.01;101607.50;143740;981;46002;-74
2021/11/24 00:14:31;;;;;;;;;;;;;;;17.57;62.32;101606.91;143738;980;46012;-75
2021/11/24 00:16:57;;;;;;;;;;;;;;;17.57;62.25;101609.63;143737;978;46005;-75
2021/11/24 00:19:23;;;;;;;;;;;;;;;17.57;56.34;101589.78;143734;983;46010;-75
2021/11/24 00:21:49;;;;;;;;;;;;;;;17.55;55.09;101608.19;143738;982;46002;-74
2021/11/24 00:24:15;;;;;;;;;;;;;;;17.59;53.72;101593.13;143739;973;46013;-74
2021/11/24 00:26:41;;;;;;;;;;;;;;;17.54;52.27;101591.09;143736;977;46004;-73
2021/11/24 00:29:07;;;;;;;;;;;;;;;17.57;52.38;101598.75;143737;984;46010;-75
2021/11/24 00:31:33;;;;;;;;;;;;;;;17.52;51.94;101592.34;143738;982;46002;-72
2021/11/24 00:34:02;;;;;;;;;;;;;;;17.54;52.03;101590.22;143736;981;46004;-74
2021/11/24 00:36:28;;;;;;;;;;;;;;;17.50;52.45;101587.16;143735;978;46004;-74
2021/11/24 00:38:54;;;;;;;;;;;;;;;17.39;53.39;101572.41;143735;981;46010;-75
2021/11/24 00:41:20;;;;;;;;;;;;;;;17.20;54.86;101587.84;143738;981;46002;-73
2021/11/24 00:43:45;;;;;;;;;;;;;;;17.07;55.92;101586.06;143737;981;46004;-74
2021/11/24 00:46:11;;;;;;;;;;;;;;;17.06;56.68;101586.25;143737;978;46004;-75
2021/11/24 00:48:37;;;;;;;;;;;;;;;17.02;56.49;101594.00;143734;983;46937;-73
2021/11/24 00:51:03;;;;;;;;;;;;;;;16.94;57.10;101596.97;143736;982;46002;-75
2021/11/24 00:53:29;;;;;;;;;;;;;;;16.85;56.92;101590.16;143738;982;46012;-74
2021/11/24 00:55:55;;;;;;;;;;;;;;;16.81;57.92;101601.44;143736;977;46004;-73
2021/11/24 00:58:21;;;;;;;;;;;;;;;16.76;58.21;101586.84;143736;984;46010;-73
2021/11/24 01:00:47;;;;;;;;;;;;;;;16.75;57.86;101593.34;143737;982;46002;-73
2021/11/24 01:03:14;;;;;;;;;;;;;;;16.76;58.24;101622.97;143737;967;46012;-74
2021/11/24 01:05:44;;;;;;;;;;;;;;;16.70;58.25;101621.13;143736;978;46004;-74
2021/11/24 01:08:11;;;;;;;;;;;;;;;16.67;58.54;101635.97;143736;978;46002;-74
2021/11/24 01:10:37;;;;;;;;;;;;;;;16.79;58.58;101652.34;143737;982;46014;-74
2021/11/24 01:13:03;;;;;;;;;;;;;;;16.83;59.52;101672.59;143735;977;46012;-74
2021/11/24 01:15:29;;;;;;;;;;;;;;;16.85;59.51;101661.53;143735;978;46005;-74
2021/11/24 01:17:55;;;;;;;;;;;;;;;16.73;59.21;101657.81;143736;983;46010;-74
2021/11/24 01:20:21;;;;;;;;;;;;;;;16.74;59.92;101651.34;143740;980;46010;-74
2021/11/24 01:22:47;;;;;;;;;;;;;;;16.81;60.18;101652.16;143735;982;46012;-75
2021/11/24 01:25:13;;;;;;;;;;;;;;;16.83;61.05;101655.50;143736;977;46005;-74
2021/11/24 01:27:40;;;;;;;;;;;;;;;16.86;60.84;101678.63;143736;984;46010;-74
2021/11/24 01:30:08;;;;;;;;;;;;;;;16.89;60.73;101686.34;143737;982;46002;-75
2021/11/24 01:32:35;;;;;;;;;;;;;;;16.91;62.33;101684.25;143735;981;46013;-75
2021/11/24 01:35:01;;;;;;;;;;;;;;;16.91;63.79;101695.91;143735;977;46004;-75
2021/11/24 01:37:26;;;;;;;;;;;;;;;16.80;63.54;101683.03;143737;982;46010;-75
2021/11/24 01:39:52;;;;;;;;;;;;;;;16.77;62.83;101672.62;143739;982;46002;-75
2021/11/24 01:42:19;;;;;;;;;;;;;;;16.63;61.13;101672.69;143732;982;47004;-74
2021/11/24 01:44:45;;;;;;;;;;;;;;;16.57;61.81;101676.25;143735;978;46004;-74
2021/11/24 01:47:11;;;;;;;;;;;;;;;16.57;61.84;101681.69;143736;971;46010;-74
2021/11/24 01:49:37;;;;;;;;;;;;;;;16.63;61.41;101680.84;143738;982;46002;-75
2021/11/24 01:52:03;;;;;;;;;;;;;;;16.69;60.82;101676.41;143737;971;46012;-74
2021/11/24 01:54:30;;;;;;;;;;;;;;;16.64;60.86;101662.66;143736;978;46013;-74
2021/11/24 01:56:56;;;;;;;;;;;;;;;16.61;60.70;101669.38;143737;979;46010;-75
2021/11/24 01:59:22;;;;;;;;;;;;;;;16.68;62.12;101675.56;143739;982;46002;-75
2021/11/24 02:01:49;;;;;;;;;;;;;;;16.72;61.03;101683.28;143735;982;46013;-75
2021/11/24 02:04:15;;;;;;;;;;;;;;;16.67;60.59;101676.66;143735;977;46004;-74
2021/11/24 02:06:41;;;;;;;;;;;;;;;16.74;60.96;101689.31;143736;984;46010;-75
2021/11/24 02:09:08;;;;;;;;;;;;;;;16.79;61.58;101679.50;143738;982;46002;-75
2021/11/24 02:11:38;;;;;;;;;;;;;;;16.72;60.29;101665.16;143733;981;46012;-73
2021/11/24 02:14:04;;;;;;;;;;;;;;;16.65;61.73;101665.19;143738;978;46004;-74
2021/11/24 02:16:30;;;;;;;;;;;;;;;16.60;61.92;101683.12;143734;984;46011;-74
2021/11/24 02:18:56;;;;;;;;;;;;;;;16.67;61.70;101698.34;143737;981;46002;-75
2021/11/24 02:21:22;;;;;;;;;;;;;;;16.69;61.23;101687.28;143737;968;46012;-75
2021/11/24 02:23:48;;;;;;;;;;;;;;;16.61;61.61;101682.94;143735;978;46005;-76
2021/11/24 02:26:14;;;;;;;;;;;;;;;16.67;62.29;101692.06;143737;983;46010;-75
2021/11/24 02:28:40;;;;;;;;;;;;;;;16.71;62.14;101685.19;143737;982;46002;-75
2021/11/24 02:31:06;;;;;;;;;;;;;;;16.68;61.07;101678.28;143736;982;46013;-75
2021/11/24 02:33:33;;;;;;;;;;;;;;;16.62;61.59;101673.75;143737;977;46004;-74
2021/11/24 02:35:59;;;;;;;;;;;;;;;16.56;62.57;101673.78;143736;984;46010;-75
2021/11/24 02:38:25;;;;;;;;;;;;;;;16.54;61.17;101654.16;143737;982;46002;-73
2021/11/24 02:40:50;;;;;;;;;;;;;;;16.48;60.88;101672.97;143736;981;46013;-75
2021/11/24 02:43:16;;;;;;;;;;;;;;;16.35;61.25;101670.31;143735;978;46004;-74
2021/11/24 02:45:42;;;;;;;;;;;;;;;16.32;61.45;101662.59;143737;981;46011;-74
2021/11/24 02:48:08;;;;;;;;;;;;;;;16.23;61.12;101659.28;143738;981;46002;-74
2021/11/24 02:50:34;;;;;;;;;;;;;;;16.25;61.28;101669.91;143737;982;46934;-74
2021/11/24 02:53:00;;;;;;;;;;;;;;;16.25;61.96;101670.75;143735;978;46004;-75
2021/11/24 02:55:26;;;;;;;;;;;;;;;16.23;61.84;101669.31;143736;983;46010;-75
2021/11/24 02:57:52;;;;;;;;;;;;;;;16.24;61.98;101677.22;143741;982;46002;-74
2021/11/24 03:00:26;;;;;;;;;;;;;;;16.29;61.93;101679.28;143735;982;46012;-74
2021/11/24 03:02:53;;;;;;;;;;;;;;;16.33;61.42;101681.34;143736;977;46004;-73
2021/11/24 03:05:23;;;;;;;;;;;;;;;16.37;61.68;101671.75;143735;984;46010;-75
2021/11/24 03:07:50;;;;;;;;;;;;;;;16.46;61.30;101679.66;143739;982;46002;-75
2021/11/24 03:10:17;;;;;;;;;;;;;;;16.52;60.97;101697.75;143738;978;46012;-75
2021/11/24 03:12:42;;;;;;;;;;;;;;;16.55;62.23;101704.66;143735;978;46004;-75
2021/11/24 03:15:08;;;;;;;;;;;;;;;16.52;61.63;101706.75;143736;984;46010;-74
2021/11/24 03:17:35;;;;;;;;;;;;;;;16.48;61.32;101705.50;143738;981;46002;-75
2021/11/24 03:20:01;;;;;;;;;;;;;;;16.21;61.57;101686.63;143736;982;46012;-75
2021/11/24 03:22:27;;;;;;;;;;;;;;;16.12;62.13;101693.28;143736;978;46004;-75
2021/11/24 03:24:55;;;;;;;;;;;;;;;16.24;62.76;101706.22;143736;984;46011;-74
2021/11/24 03:27:31;;;;;;;;;;;;;;;16.33;63.44;101711.16;143737;982;46002;-75
2021/11/24 03:29:58;;;;;;;;;;;;;;;16.37;63.94;101723.25;143738;985;46013;-75
2021/11/24 03:32:26;;;;;;;;;;;;;;;16.46;63.25;101728.47;143736;977;46004;-75
2021/11/24 03:34:52;;;;;;;;;;;;;;;16.51;63.09;101732.19;143735;984;46010;-75
2021/11/24 03:37:19;;;;;;;;;;;;;;;16.53;62.96;101729.25;143738;982;46003;-75
2021/11/24 03:39:45;;;;;;;;;;;;;;;16.59;62.25;101727.59;143736;981;46013;-76
2021/11/24 03:42:12;;;;;;;;;;;;;;;16.60;62.78;101726.50;143737;978;46004;-74
2021/11/24 03:44:37;;;;;;;;;;;;;;;16.59;62.74;101719.47;143738;984;46010;-74
2021/11/24 03:47:04;;;;;;;;;;;;;;;16.62;62.89;101738.84;143739;981;46002;-75
2021/11/24 03:49:30;;;;;;;;;;;;;;;16.63;63.15;101737.78;143737;985;46012;-75
2021/11/24 03:51:56;;;;;;;;;;;;;;;16.67;62.93;101740.91;143735;978;46004;-74
2021/11/24 03:54:22;;;;;;;;;;;;;;;16.67;62.02;101747.19;143736;983;46011;-74
2021/11/24 03:56:48;;;;;;;;;;;;;;;16.67;62.51;101749.88;143739;983;46002;-72
2021/11/24 03:59:14;;;;;;;;;;;;;;;16.72;63.12;101754.66;143738;971;46012;-75
2021/11/24 04:01:40;;;;;;;;;;;;;;;16.70;63.29;101750.47;143737;978;46004;-74
2021/11/24 04:04:06;;;;;;;;;;;;;;;16.70;63.27;101754.03;143737;979;46010;-75
2021/11/24 04:06:32;;;;;;;;;;;;;;;16.72;63.38;101762.81;143739;982;46002;-74
2021/11/24 04:08:58;;;;;;;;;;;;;;;16.72;62.97;101756.53;143736;982;46013;-74
2021/11/24 04:11:25;;;;;;;;;;;;;;;16.66;62.81;101753.66;143737;978;46004;-75
2021/11/24 04:13:51;;;;;;;;;;;;;;;16.67;62.38;101763.44;143735;981;46010;-75
2021/11/24 04:16:16;;;;;;;;;;;;;;;16.71;62.78;101766.56;143738;982;46002;-74
2021/11/24 04:18:43;;;;;;;;;;;;;;;16.74;62.71;101768.00;143739;976;45024;-75
2021/11/24 04:21:09;;;;;;;;;;;;;;;16.73;62.90;101780.75;143734;978;46938;-75
2021/11/24 04:23:35;;;;;;;;;;;;;;;16.74;62.69;101776.13;143738;984;46010;-75
2021/11/24 04:26:01;;;;;;;;;;;;;;;16.78;62.26;101774.66;143738;981;46002;-75
2021/11/24 04:28:27;;;;;;;;;;;;;;;16.77;61.93;101765.69;143733;982;46934;-75
2021/11/24 04:30:53;;;;;;;;;;;;;;;16.78;60.48;101771.97;143736;978;46005;-75
2021/11/24 04:33:18;;;;;;;;;;;;;;;16.68;60.85;101769.69;143737;981;46010;-74
2021/11/24 04:35:44;;;;;;;;;;;;;;;16.74;61.20;101773.44;143741;982;46002;-75
2021/11/24 04:38:10;;;;;;;;;;;;;;;16.74;59.91;101778.84;143737;982;46013;-75
2021/11/24 04:40:36;;;;;;;;;;;;;;;16.83;59.86;101778.41;143736;977;46004;-75
2021/11/24 04:43:05;;;;;;;;;;;;;;;16.90;62.21;101793.84;143737;982;46018;-75
2021/11/24 04:45:31;;;;;;;;;;;;;;;16.89;61.75;101798.41;143737;982;46002;-76
2021/11/24 04:47:56;;;;;;;;;;;;;;;16.89;62.42;101800.31;143737;981;46012;-75
2021/11/24 04:50:22;;;;;;;;;;;;;;;16.88;62.36;101804.06;143737;978;46004;-76
2021/11/24 04:52:49;;;;;;;;;;;;;;;16.89;60.43;101803.03;143735;981;46011;-75
2021/11/24 04:55:15;;;;;;;;;;;;;;;16.85;60.18;101799.06;143738;981;46002;-75
2021/11/24 04:57:41;;;;;;;;;;;;;;;16.93;59.53;101798.84;143735;970;46012;-75
2021/11/24 05:00:11;;;;;;;;;;;;;;;16.91;59.03;101796.31;143735;978;46004;-74
2021/11/24 05:02:37;;;;;;;;;;;;;;;16.91;58.95;101799.03;143737;982;46010;-74
2021/11/24 05:05:03;;;;;;;;;;;;;;;16.96;59.66;101796.56;143739;982;46014;-74
2021/11/24 05:07:29;;;;;;;;;;;;;;;16.96;58.61;101799.25;143735;982;46012;-75
2021/11/24 05:09:57;;;;;;;;;;;;;;;16.95;58.21;101810.31;143736;977;46004;-75
2021/11/24 05:12:22;;;;;;;;;;;;;;;16.97;58.60;101814.50;143737;984;46010;-75
2021/11/24 05:14:50;;;;;;;;;;;;;;;17.02;58.93;101808.44;143737;982;46002;-75
2021/11/24 05:17:18;;;;;;;;;;;;;;;17.07;58.92;101813.19;143736;980;46020;-75
2021/11/24 05:19:47;;;;;;;;;;;;;;;17.08;59.62;101825.72;143738;978;46004;-75
2021/11/24 05:22:14;;;;;;;;;;;;;;;17.02;61.04;101822.00;143735;984;46010;-74
2021/11/24 05:24:40;;;;;;;;;;;;;;;16.98;61.55;101834.31;143738;981;46002;-74
2021/11/24 05:27:06;;;;;;;;;;;;;;;16.97;61.30;101840.78;143735;982;46012;-74
2021/11/24 05:29:32;;;;;;;;;;;;;;;16.96;61.54;101839.12;143735;978;46005;-75
2021/11/24 05:31:58;;;;;;;;;;;;;;;16.96;61.51;101841.84;143734;983;47002;-74
2021/11/24 05:34:24;;;;;;;;;;;;;;;16.95;61.67;101845.59;143739;982;46002;-75
2021/11/24 05:36:50;;;;;;;;;;;;;;;16.96;62.08;101855.41;143735;982;46013;-75
2021/11/24 05:39:16;;;;;;;;;;;;;;;16.96;61.78;101858.97;143739;977;46004;-74
2021/11/24 05:41:42;;;;;;;;;;;;;;;16.98;61.89;101853.31;143737;971;46010;-74
2021/11/24 05:44:33;;;;;;;;;;;;;;;16.98;62.27;101847.88;143737;982;46002;-74
2021/11/24 05:47:05;;;;;;;;;;;;;;;16.95;61.27;101843.72;143738;971;46012;-75
2021/11/24 05:49:31;;;;;;;;;;;;;;;16.95;61.29;101851.03;143736;978;46004;-75
2021/11/24 05:51:57;;;;;;;;;;;;;;;16.98;60.98;101858.75;143737;984;46011;-77
2021/11/24 05:54:23;;;;;;;;;;;;;;;17.03;61.19;101874.41;143738;981;46010;-75
2021/11/24 05:56:49;;;;;;;;;;;;;;;17.00;61.47;101885.69;143738;977;46012;-74
2021/11/24 05:59:16;;;;;;;;;;;;;;;17.02;61.79;101884.41;143737;978;46004;-75
2021/11/24 06:01:42;;;;;;;;;;;;;;;17.05;61.53;101883.16;143735;983;46010;-75
2021/11/24 06:04:09;;;;;;;;;;;;;;;17.07;62.17;101889.19;143738;984;46002;-75
2021/11/24 06:06:35;;;;;;;;;;;;;;;17.04;62.70;101889.62;143735;985;47010;-74
2021/11/24 06:09:02;;;;;;;;;;;;;;;17.04;61.16;101893.19;143737;981;46002;-75
2021/11/24 06:11:28;;;;;;;;;;;;;;;17.01;61.37;101896.31;143736;985;46008;-75
2021/11/24 06:13:53;;;;;;;;;;;;;;;17.04;62.50;101900.47;143737;986;46000;-74
2021/11/24 06:16:20;;;;;;;;;;;;;;;17.03;62.72;101907.81;143736;985;46010;-74
2021/11/24 06:18:47;;;;;;;;;;;;;;;16.99;61.65;101903.84;143735;982;46002;-75
2021/11/24 06:21:13;;;;;;;;;;;;;;;16.98;61.66;101913.03;143737;986;46007;-74
2021/11/24 06:23:39;;;;;;;;;;;;;;;17.00;61.62;101918.25;143738;985;46000;-75
2021/11/24 06:26:07;;;;;;;;;;;;;;;17.01;60.66;101911.78;143736;985;46010;-74
2021/11/24 06:28:33;;;;;;;;;;;;;;;17.05;60.26;101903.00;143737;982;46011;-75
2021/11/24 06:30:59;;;;;;;;;;;;;;;17.07;59.50;101903.63;143737;981;46008;-75
2021/11/24 06:33:26;;;;;;;;;;;;;;;17.01;59.95;101915.31;143738;986;46000;-74
2021/11/24 06:35:52;;;;;;;;;;;;;;;16.96;58.61;101909.69;143735;986;46011;-75
2021/11/24 06:38:18;;;;;;;;;;;;;;;16.96;59.61;101924.09;143734;981;46010;-75
2021/11/24 06:40:45;;;;;;;;;;;;;;;17.02;60.51;101944.12;143735;986;46008;-75
2021/11/24 06:43:11;;;;;;;;;;;;;;;17.04;60.40;101957.47;143737;974;46000;-74
2021/11/24 06:45:36;;;;;;;;;;;;;;;17.03;60.82;101953.94;143736;985;46010;-74
2021/11/24 06:48:03;;;;;;;;;;;;;;;17.01;60.85;101947.06;143732;982;47002;-74
2021/11/24 06:50:29;;;;;;;;;;;;;;;17.05;60.27;101959.16;143734;986;46008;-74
2021/11/24 06:52:55;;;;;;;;;;;;;;;17.07;58.75;101951.63;143737;985;47000;-75
2021/11/24 06:55:21;;;;;;;;;;;;;;;17.08;58.43;101946.00;143737;978;46932;-76
2021/11/24 06:57:47;;;;;;;;;;;;;;;17.10;58.84;101949.34;143735;982;46003;-76
2021/11/24 07:00:14;;;;;;;;;;;;;;;17.09;58.76;101953.09;143736;985;46010;-75
2021/11/24 07:02:40;;;;;;;;;;;;;;;17.12;59.13;101966.22;143737;985;46000;-76
2021/11/24 07:05:06;;;;;;;;;;;;;;;17.12;59.68;101968.13;143736;986;46010;-76
2021/11/24 07:07:32;;;;;;;;;;;;;;;17.11;59.04;101974.59;143736;981;46011;-76
2021/11/24 07:09:58;;;;;;;;;;;;;;;17.09;59.54;101973.97;143735;985;46008;-76
2021/11/24 07:12:25;;;;;;;;;;;;;;;17.09;59.59;101971.25;143739;986;46000;-76
2021/11/24 07:14:52;;;;;;;;;;;;;;;17.10;59.82;101976.50;143735;985;46011;-76
2021/11/24 07:17:18;;;;;;;;;;;;;;;17.14;59.22;101982.31;143735;981;46002;-77
2021/11/24 07:19:44;;;;;;;;;;;;;;;17.17;59.00;101979.19;143735;985;46008;-76
2021/11/24 07:22:10;;;;;;;;;;;;;;;17.17;59.00;101981.91;143737;976;46000;-76
2021/11/24 07:24:36;;;;;;;;;;;;;;;17.17;60.49;101981.06;143736;986;46010;-76
2021/11/24 07:27:02;;;;;;;;;;;;;;;17.20;60.28;101994.22;143737;973;46010;-76
2021/11/24 07:29:28;;;;;;;;;;;;;;;17.21;60.69;101998.59;143737;985;46008;-76
2021/11/24 07:31:54;;;;;;;;;;;;;;;17.22;61.35;101998.38;143738;986;46000;-76
2021/11/24 07:34:20;;;;;;;;;;;;;;;17.20;61.32;101999.63;143737;986;46010;-75
2021/11/24 07:36:46;;;;;;;;;;;;;;;17.19;61.27;101987.97;143735;982;46011;-76
2021/11/24 07:39:12;;;;;;;;;;;;;;;17.20;60.88;101992.34;143736;985;46008;-76
2021/11/24 07:41:38;;;;;;;;;;;;;;;17.21;60.80;101991.28;143739;986;46000;-75
2021/11/24 07:44:04;;;;;;;;;;;;;;;17.21;61.56;101999.41;143737;986;46011;-75
2021/11/24 07:46:30;;;;;;;;;;;;;;;17.20;61.22;102007.78;143738;981;46937;-76
2021/11/24 07:48:57;;;;;;;;;;;;;;;17.18;61.41;101999.00;143739;986;46008;-76
2021/11/24 07:51:24;;;;;;;;;;;;;;;17.21;60.70;102004.84;143738;986;46000;-76
2021/11/24 07:53:50;;;;;;;;;;;;;;;17.26;60.12;102010.50;143738;986;46010;-75
2021/11/24 07:56:16;;;;;;;;;;;;;;;17.25;58.17;102013.44;143735;982;47010;-74
2021/11/24 07:58:42;;;;;;;;;;;;;;;17.30;59.46;102019.03;143737;985;46009;-75
2021/11/24 08:01:09;;;;;;;;;;;;;;;17.39;58.32;102006.06;143739;986;46000;-75
2021/11/24 08:03:35;;;;;;;;;;;;;;;17.43;58.43;102004.59;143737;986;46010;-75
2021/11/24 08:06:01;;;;;;;;;;;;;;;17.40;57.92;102003.16;143737;978;46005;-75
2021/11/24 08:08:27;;;;;;;;;;;;;;;17.45;59.25;102010.66;143736;983;46010;-75
2021/11/24 08:10:53;;;;;;;;;;;;;;;17.51;58.79;102014.41;143739;982;46002;-75
2021/11/24 08:13:21;;;;;;;;;;;;;;;17.55;58.20;102019.22;143735;974;46934;-75
2021/11/24 08:15:47;;;;;;;;;;;;;;;17.58;59.35;102018.75;143737;977;46004;-75
2021/11/24 08:18:13;;;;;;;;;;;;;;;17.62;59.08;102030.06;143737;984;46010;-75
2021/11/24 08:20:39;;;;;;;;;;;;;;;17.62;57.99;102026.50;143738;985;46002;-75
2021/11/24 08:23:05;;;;;;;;;;;;;;;17.60;57.40;102028.56;143736;981;46012;-75
2021/11/24 08:25:31;;;;;;;;;;;;;;;17.31;57.83;102025.31;143736;978;46004;-75
2021/11/24 08:27:57;;;;;;;;;;;;;;;17.21;57.41;102023.84;143736;973;46011;-75
2021/11/24 08:30:24;;;;;;;;;;;;;;;17.26;57.45;102021.34;143736;981;46010;-78
2021/11/24 08:32:50;;;;;;;;;;;;;;;17.33;57.56;102034.91;143734;976;46012;-73
2021/11/24 08:35:16;;;;;;;;;;;;;;;17.37;58.41;102046.22;143734;978;46004;-78
2021/11/24 08:37:42;;;;;;;;;;;;;;;17.39;59.17;102034.06;143734;983;46010;-71
2021/11/24 08:40:09;;;;;;;;;;;;;;;17.33;58.25;102034.91;143736;963;47014;-79
2021/11/24 08:42:35;;;;;;;;;;;;;;;17.28;57.74;102040.97;143738;975;46013;-81
2021/11/24 08:45:01;;;;;;;;;;;;;;;17.29;58.22;102039.13;143736;977;46004;-78
2021/11/24 08:47:27;;;;;;;;;;;;;;;17.30;58.16;102037.22;143736;973;46010;-73
2021/11/24 08:49:53;;;;;;;;;;;;;;;17.26;57.63;102029.50;143737;982;47002;-74
2021/11/24 08:52:19;;;;;;;;;;;;;;;17.27;57.69;102022.19;143738;970;46012;-75
2021/11/24 08:54:44;;;;;;;;;;;;;;;17.31;57.34;102025.31;143736;978;47004;-76
2021/11/24 08:57:11;;;;;;;;;;;;;;;17.35;56.25;102007.56;143737;984;46010;-71
2021/11/24 08:59:37;;;;;;;;;;;;;;;17.43;56.38;102012.75;143738;981;46002;-75
2021/11/24 09:02:03;;;;;;;;;;;;;;;17.54;56.28;102020.25;143736;982;46012;-77
2021/11/24 09:04:29;;;;;;;;;;;;;;;17.57;54.85;102027.13;143737;968;46004;-77
2021/11/24 09:06:55;;;;;;;;;;;;;;;17.50;53.42;102021.72;143736;983;46011;-77
2021/11/24 09:09:21;;;;;;;;;;;;;;;17.47;55.09;102016.72;143738;982;46002;-77
2021/11/24 09:11:47;;;;;;;;;;;;;;;17.43;54.58;102013.59;143737;982;46012;-78
2021/11/24 09:14:12;;;;;;;;;;;;;;;17.43;53.99;101997.31;143735;977;47004;-72
2021/11/24 09:16:38;;;;;;;;;;;;;;;17.49;52.30;101998.31;143735;982;46010;-73
2021/11/24 09:19:04;;;;;;;;;;;;;;;17.59;53.69;101995.16;143737;982;46002;-76
2021/11/24 09:21:30;;;;;;;;;;;;;;;17.65;52.49;101999.72;143733;981;47934;-76
2021/11/24 09:24:01;;;;;;;;;;;;;;;17.68;52.32;102014.78;143736;977;46004;-76
2021/11/24 09:26:37;;;;;;;;;;;;;;;17.66;50.33;102023.13;143737;984;46936;-76
2021/11/24 09:29:03;;;;;;;;;;;;;;;17.65;51.13;102021.44;143740;981;46002;-75
2021/11/24 09:31:30;;;;;;;;;;;;;;;17.67;52.41;102023.97;143739;982;45934;-73
2021/11/24 09:33:58;;;;;;;;;;;;;;;17.63;52.60;102022.72;143739;978;46004;-76
2021/11/24 09:36:25;;;;;;;;;;;;;;;17.54;53.17;102017.53;143735;982;46011;-78
2021/11/24 09:38:51;;;;;;;;;;;;;;;17.52;52.51;102025.06;143740;982;46002;-76
2021/11/24 09:41:20;;;;;;;;;;;;;;;17.41;53.26;102021.13;143737;975;46012;-76
2021/11/24 09:43:50;;;;;;;;;;;;;;;17.29;53.45;102009.25;143737;978;46004;-76
2021/11/24 09:46:16;;;;;;;;;;;;;;;17.24;54.04;102017.19;143735;984;46010;-77
2021/11/24 09:48:43;;;;;;;;;;;;;;;17.24;53.05;102014.47;143738;982;46002;-77
2021/11/24 09:51:09;;;;;;;;;;;;;;;17.29;52.74;102017.41;143735;982;46013;-76
2021/11/24 09:53:35;;;;;;;;;;;;;;;17.36;51.70;102014.66;143736;978;46004;-76
2021/11/24 09:56:02;;;;;;;;;;;;;;;17.41;52.20;102021.13;143736;984;46010;-76
2021/11/24 09:58:28;;;;;;;;;;;;;;;17.52;52.17;102021.50;143738;982;46002;-75
2021/11/24 10:00:54;;;;;;;;;;;;;;;17.54;52.25;102022.97;143736;981;46012;-76
2021/11/24 10:03:20;;;;;;;;;;;;;;;17.53;52.11;102024.03;143735;978;46004;-76
2021/11/24 10:05:47;;;;;;;;;;;;;;;17.59;51.95;102027.75;143737;984;46011;-75
2021/11/24 10:08:13;;;;;;;;;;;;;;;17.60;52.10;102025.88;143738;981;46002;-76
2021/11/24 10:10:39;;;;;;;;;;;;;;;17.58;51.53;102016.03;143735;982;46012;-76
2021/11/24 10:13:05;;;;;;;;;;;;;;;17.61;51.18;102019.38;143739;978;46004;-76
2021/11/24 10:15:41;;;;;;;;;;;;;;;17.68;51.04;102020.22;143735;980;46010;-76
2021/11/24 10:18:42;;;;;;;;;;;;;;;17.75;51.03;102015.56;143738;982;46002;-77
2021/11/24 10:21:09;;;;;;;;;;;;;;;17.75;50.23;102018.28;143736;981;46013;-75
2021/11/24 10:23:36;;;;;;;;;;;;;;;17.76;50.69;102019.13;143735;978;47004;-78
2021/11/24 10:26:15;;;;;;;;;;;;;;;17.79;50.26;102018.72;143735;983;46010;-76
2021/11/24 10:28:47;;;;;;;;;;;;;;;17.80;50.77;102014.94;143738;981;46002;-76
2021/11/24 10:31:27;;;;;;;;;;;;;;;17.85;50.89;102009.69;143734;982;46012;-73
2021/11/24 10:33:53;;;;;;;;;;;;;;;17.86;51.23;102019.50;143734;978;47004;-75
2021/11/24 10:36:19;;;;;;;;;;;;;;;17.88;52.17;102022.84;143736;983;46011;-73
2021/11/24 10:38:47;;;;;;;;;;;;;;;17.88;53.31;102020.97;143738;982;46002;-77
2021/11/24 10:41:24;;;;;;;;;;;;;;;17.78;49.62;102020.56;143737;970;46934;-78
2021/11/24 10:43:50;;;;;;;;;;;;;;;17.65;49.11;102016.03;143735;977;46009;-77
2021/11/24 10:46:17;;;;;;;;;;;;;;;17.72;49.10;102013.31;143735;984;46010;-77
2021/11/24 10:48:44;;;;;;;;;;;;;;;17.78;48.99;102019.75;143736;982;46002;-78
2021/11/24 10:51:28;;;;;;;;;;;;;;;17.82;49.38;102018.28;143737;985;46012;-78
2021/11/24 10:54:04;;;;;;;;;;;;;;;17.87;50.01;102010.28;143736;976;46004;-67
2021/11/24 10:56:30;;;;;;;;;;;;;;;17.87;49.26;102008.44;143737;981;46010;-67
2021/11/24 10:59:14;;;;;;;;;;;;;;;17.84;49.39;102006.13;143737;981;46002;-67
2021/11/24 11:01:39;;;;;;;;;;;;;;;17.77;47.51;102010.75;143734;982;46012;-67
2021/11/24 11:04:08;;;;;;;;;;;;;;;17.84;46.97;102016.16;143738;978;46004;-68
2021/11/24 11:06:34;;;;;;;;;;;;;;;17.88;46.78;101998.38;143739;981;45019;-67
2021/11/24 11:09:00;;;;;;;;;;;;;;;17.91;46.57;101997.13;143738;982;46002;-66
2021/11/24 11:11:27;;;;;;;;;;;;;;;17.88;45.63;101999.22;143738;982;46012;-66
2021/11/24 11:14:11;;;;;;;;;;;;;;;17.98;46.18;101990.66;143739;977;45938;-66
2021/11/24 11:16:45;;;;;;;;;;;;;;;18.02;46.51;101980.16;143739;984;45900;-67
2021/11/24 11:19:11;;;;;;;;;;;;;;;18.01;46.01;101983.94;143741;982;46015;-66
2021/11/24 11:21:37;;;;;;;;;;;;;;;18.02;46.79;101980.16;143738;970;45935;-65
2021/11/24 11:24:06;;;;;;;;;;;;;;;18.05;47.35;101985.16;143736;978;46004;-67
2021/11/24 11:26:32;;;;;;;;;;;;;;;18.08;47.15;101981.16;143738;984;45936;-66
2021/11/24 11:28:58;;;;;;;;;;;;;;;18.06;47.82;101978.69;143741;981;46002;-67
2021/11/24 11:31:28;;;;;;;;;;;;;;;18.05;47.27;101977.00;143738;982;46010;-66
2021/11/24 11:33:55;;;;;;;;;;;;;;;18.03;47.46;101971.78;143728;978;50012;-66
2021/11/24 11:36:21;;;;;;;;;;;;;;;17.95;47.16;101969.28;143740;982;45018;-66
2021/11/24 11:38:49;;;;;;;;;;;;;;;17.96;47.98;101968.25;143740;982;46002;-68
2021/11/24 11:41:17;;;;;;;;;;;;;;;17.98;48.76;101959.88;143739;982;46012;-66
2021/11/24 11:43:43;;;;;;;;;;;;;;;18.03;48.20;101960.09;143734;977;46004;-66
2021/11/24 11:46:16;;;;;;;;;;;;;;;18.02;47.87;101964.66;143740;984;45014;-67
2021/11/24 11:48:43;;;;;;;;;;;;;;;18.03;48.06;101963.62;143740;982;46002;-66
2021/11/24 11:51:10;;;;;;;;;;;;;;;18.09;48.08;101963.81;143740;981;45013;-66
2021/11/24 11:53:39;;;;;;;;;;;;;;;18.03;47.66;101974.50;143735;978;46016;-66
2021/11/24 11:56:11;;;;;;;;;;;;;;;18.03;47.34;101970.94;143739;984;45936;-66
2021/11/24 11:58:53;;;;;;;;;;;;;;;18.05;47.08;101966.13;143739;981;46002;-67
2021/11/24 12:01:33;;;;;;;;;;;;;;;18.07;47.64;101977.62;143739;982;45934;-68
2021/11/24 12:04:27;;;;;;;;;;;;;;;18.10;47.92;101971.72;143736;978;46012;-67
2021/11/24 12:07:04;;;;;;;;;;;;;;;18.13;47.64;101974.03;143739;983;46010;-68
2021/11/24 12:09:36;;;;;;;;;;;;;;;18.07;47.62;101990.38;143739;982;46002;-67
2021/11/24 12:12:12;;;;;;;;;;;;;;;18.06;47.67;101981.41;143740;982;45013;-69
2021/11/24 12:14:54;;;;;;;;;;;;;;;18.10;47.43;101985.31;143738;977;46004;-68
2021/11/24 12:17:49;;;;;;;;;;;;;;;18.13;47.61;101979.47;143738;984;46006;-68
2021/11/24 12:20:39;;;;;;;;;;;;;;;18.12;47.56;101968.81;143742;981;45014;-68
2021/11/24 12:23:05;;;;;;;;;;;;;;;18.12;47.85;101974.25;143737;982;46012;-67
2021/11/24 12:25:41;;;;;;;;;;;;;;;18.07;47.71;101979.50;143736;978;46004;-67
2021/11/24 12:28:09;;;;;;;;;;;;;;;18.12;48.33;101990.56;143735;983;46006;-67
2021/11/24 12:31:02;;;;;;;;;;;;;;;18.11;49.29;101987.00;143741;982;46002;-69
2021/11/24 12:33:38;;;;;;;;;;;;;;;18.12;49.98;101993.28;143737;982;46012;-68
2021/11/24 12:36:09;;;;;;;;;;;;;;;18.12;50.32;101996.81;143738;977;46008;-67
2021/11/24 12:38:45;;;;;;;;;;;;;;;18.11;49.38;101987.00;143739;984;45936;-66